createdAt,value
2022-10-09T00:01:29.651Z,10.00
2022-10-09T00:03:59.491Z,11.63
2022-10-09T00:06:30.298Z,10.20
2022-10-09T00:08:59.407Z,9.50
2022-10-09T00:11:29.439Z,11.07
2022-10-09T00:13:58.867Z,11.93
2022-10-09T00:16:28.885Z,10.47
2022-10-09T00:18:57.758Z,9.83
2022-10-09T00:21:27.678Z,12.20
2022-10-09T00:23:58.077Z,11.77
2022-10-09T00:26:26.614Z,10.47
2022-10-09T00:28:56.127Z,12.47
2022-10-09T00:31:24.734Z,13.47
2022-10-09T00:33:54.623Z,10.87
2022-10-09T00:36:25.022Z,11.93
2022-10-09T00:38:55.611Z,13.23
2022-10-09T00:41:25.738Z,11.03
2022-10-09T00:43:56.091Z,11.93
2022-10-09T00:46:34.630Z,7.07
2022-10-09T00:49:16.131Z,13.93
2022-10-09T00:51:46.903Z,11.27
2022-10-09T00:54:19.063Z,9.37
2022-10-09T00:56:47.577Z,11.03
2022-10-09T00:59:17.106Z,10.83
2022-10-09T01:01:45.548Z,8.13
2022-10-09T01:04:15.902Z,11.13
2022-10-09T01:06:58.324Z,12.27
2022-10-09T01:09:35.278Z,10.40
2022-10-09T01:12:12.452Z,8.97
2022-10-09T01:14:45.872Z,10.47
2022-10-09T01:17:20.762Z,12.47
2022-10-09T01:20:17.951Z,7.03
2022-10-09T01:22:59.885Z,12.27
2022-10-09T01:25:35.266Z,8.27
2022-10-09T01:28:08.378Z,14.77
2022-10-09T01:30:37.872Z,13.13
2022-10-09T01:33:06.604Z,10.97
2022-10-09T01:35:35.235Z,13.83
2022-10-09T01:38:05.431Z,14.23
2022-10-09T01:40:34.198Z,13.50
2022-10-09T01:43:03.742Z,10.83
2022-10-09T01:45:39.289Z,11.60
2022-10-09T01:48:10.898Z,16.53
2022-10-09T01:50:44.289Z,13.63
2022-10-09T01:53:14.800Z,12.33
2022-10-09T01:55:50.393Z,10.60
2022-10-09T01:58:24.011Z,11.00
2022-10-09T02:00:57.891Z,15.10
2022-10-09T02:03:28.294Z,13.97
2022-10-09T02:05:57.780Z,10.27
2022-10-09T02:08:26.813Z,10.43
2022-10-09T02:10:58.069Z,12.70
2022-10-09T02:13:28.131Z,12.37
2022-10-09T02:16:01.729Z,11.83
2022-10-09T02:18:38.368Z,10.57
2022-10-09T02:21:12.393Z,10.30
2022-10-09T02:23:44.619Z,12.03
2022-10-09T02:26:13.585Z,13.10
2022-10-09T02:28:45.965Z,10.93
2022-10-09T02:31:21.389Z,12.13
2022-10-09T02:33:56.334Z,8.47
2022-10-09T02:36:24.716Z,13.77
2022-10-09T02:38:53.561Z,9.23
2022-10-09T02:41:21.836Z,10.37
2022-10-09T02:43:51.495Z,10.77
2022-10-09T02:46:19.939Z,14.90
2022-10-09T02:48:48.166Z,10.37
2022-10-09T02:51:16.730Z,10.60
2022-10-09T02:53:45.825Z,13.53
2022-10-09T02:56:14.291Z,9.17
2022-10-09T02:58:42.741Z,11.00
2022-10-09T03:01:12.915Z,9.67
2022-10-09T03:03:41.254Z,9.93
2022-10-09T03:06:11.292Z,8.53
2022-10-09T03:08:41.604Z,9.60
2022-10-09T03:11:10.884Z,11.60
2022-10-09T03:13:40.062Z,13.80
2022-10-09T03:16:11.392Z,10.13
2022-10-09T03:18:41.467Z,9.27
2022-10-09T03:21:13.097Z,10.03
2022-10-09T03:23:42.772Z,11.63
2022-10-09T03:26:13.502Z,9.43
2022-10-09T03:28:44.594Z,11.40
2022-10-09T03:31:27.410Z,13.87
2022-10-09T03:34:02.388Z,15.30
2022-10-09T03:36:30.706Z,14.27
2022-10-09T03:38:58.827Z,14.20
2022-10-09T03:41:27.143Z,12.73
2022-10-09T03:43:55.538Z,11.60
2022-10-09T03:46:23.815Z,9.80
2022-10-09T03:48:51.956Z,11.43
2022-10-09T03:51:21.598Z,10.93
2022-10-09T03:53:49.861Z,10.13
2022-10-09T03:56:18.063Z,11.23
2022-10-09T03:58:46.469Z,9.63
2022-10-09T04:01:14.773Z,8.03
2022-10-09T04:03:43.027Z,14.97
2022-10-09T04:06:11.882Z,12.37
2022-10-09T04:08:41.377Z,11.20
2022-10-09T04:11:09.529Z,9.57
2022-10-09T04:13:37.884Z,9.13
2022-10-09T04:16:06.621Z,10.93
2022-10-09T04:18:34.771Z,11.27
2022-10-09T04:21:03.097Z,11.07
2022-10-09T04:23:31.208Z,12.97
2022-10-09T04:26:01.690Z,11.63
2022-10-09T04:28:31.437Z,14.90
2022-10-09T04:31:00.528Z,14.63
2022-10-09T04:33:28.769Z,11.93
2022-10-09T04:35:58.834Z,9.87
2022-10-09T04:38:27.005Z,11.80
2022-10-09T04:41:00.798Z,11.67
2022-10-09T04:43:30.169Z,16.37
2022-10-09T04:45:58.879Z,16.37
2022-10-09T04:48:27.179Z,14.30
2022-10-09T04:50:55.428Z,14.03
2022-10-09T04:53:23.623Z,12.87
2022-10-09T04:55:51.792Z,12.77
2022-10-09T04:58:21.660Z,12.03
2022-10-09T05:00:50.398Z,12.67
2022-10-09T05:03:18.550Z,11.43
2022-10-09T05:05:47.195Z,12.17
2022-10-09T05:08:15.386Z,12.03
2022-10-09T05:10:43.493Z,10.53
2022-10-09T05:13:11.947Z,14.97
2022-10-09T05:15:41.437Z,13.97
2022-10-09T05:18:09.538Z,13.90
2022-10-09T05:20:41.535Z,13.47
2022-10-09T05:23:09.664Z,12.40
2022-10-09T05:25:37.788Z,14.40
2022-10-09T05:28:06.527Z,16.07
2022-10-09T05:30:34.628Z,16.60
2022-10-09T05:33:04.147Z,14.20
2022-10-09T05:35:32.600Z,13.70
2022-10-09T05:38:00.765Z,13.30
2022-10-09T05:40:29.407Z,10.00
2022-10-09T05:42:57.876Z,14.27
2022-10-09T05:45:25.940Z,12.27
2022-10-09T05:47:54.614Z,13.40
2022-10-09T05:50:24.050Z,13.90
2022-10-09T05:52:52.288Z,12.63
2022-10-09T05:55:20.557Z,12.27
2022-10-09T05:57:50.572Z,11.73
2022-10-09T06:00:18.784Z,16.63
2022-10-09T06:02:47.596Z,11.27
2022-10-09T06:05:16.107Z,12.63
2022-10-09T06:07:47.129Z,16.90
2022-10-09T06:10:15.881Z,19.57
2022-10-09T06:12:44.364Z,16.77
2022-10-09T06:15:12.541Z,18.93
2022-10-09T06:17:40.972Z,12.20
2022-10-09T06:20:09.848Z,13.80
2022-10-09T06:22:37.999Z,12.33
2022-10-09T06:25:08.726Z,13.33
2022-10-09T06:27:36.880Z,7.13
2022-10-09T06:30:05.602Z,8.10
2022-10-09T06:32:33.887Z,14.20
2022-10-09T06:35:02.022Z,11.57
2022-10-09T06:37:30.285Z,11.50
2022-10-09T06:39:58.636Z,11.47
2022-10-09T06:42:28.061Z,13.93
2022-10-09T06:44:58.900Z,11.87
2022-10-09T06:47:27.187Z,13.10
2022-10-09T06:49:55.344Z,15.50
2022-10-09T06:52:23.764Z,12.67
2022-10-09T06:54:52.550Z,16.20
2022-10-09T06:57:20.687Z,10.40
2022-10-09T06:59:51.850Z,10.73
2022-10-09T07:02:20.238Z,12.57
2022-10-09T07:04:48.578Z,10.43
2022-10-09T07:07:16.807Z,13.17
2022-10-09T07:09:45.162Z,21.73
2022-10-09T07:12:13.304Z,13.80
2022-10-09T07:14:41.705Z,9.90
2022-10-09T07:17:11.406Z,15.20
2022-10-09T07:19:39.580Z,15.03
2022-10-09T07:22:11.325Z,7.77
2022-10-09T07:24:39.669Z,13.23
2022-10-09T07:27:07.826Z,12.33
2022-10-09T07:29:35.998Z,10.50
2022-10-09T07:32:09.578Z,10.20
2022-10-09T07:34:39.922Z,12.23
2022-10-09T07:37:08.218Z,8.20
2022-10-09T07:39:36.474Z,12.13
2022-10-09T07:42:05.528Z,7.37
2022-10-09T07:44:34.973Z,10.23
2022-10-09T07:47:03.094Z,15.13
2022-10-09T07:49:31.488Z,14.30
2022-10-09T07:52:01.132Z,11.60
2022-10-09T07:54:29.425Z,11.23
2022-10-09T07:56:57.891Z,9.63
2022-10-09T07:59:26.385Z,9.90
2022-10-09T08:01:54.597Z,13.33
2022-10-09T08:04:23.011Z,11.87
2022-10-09T08:06:51.298Z,15.17
2022-10-09T08:09:20.864Z,15.03
2022-10-09T08:11:49.301Z,11.67
2022-10-09T08:14:19.659Z,7.47
2022-10-09T08:16:48.425Z,9.83
2022-10-09T08:19:16.823Z,14.00
2022-10-09T08:21:45.114Z,13.20
2022-10-09T08:24:13.414Z,15.77
2022-10-09T08:26:44.171Z,14.13
2022-10-09T08:29:16.000Z,11.23
2022-10-09T08:31:44.322Z,7.37
2022-10-09T08:34:12.566Z,10.63
2022-10-09T08:36:40.851Z,8.97
2022-10-09T08:39:09.598Z,12.27
2022-10-09T08:41:45.010Z,11.50
2022-10-09T08:44:19.948Z,13.20
2022-10-09T08:47:00.047Z,11.77
2022-10-09T08:49:35.610Z,8.00
2022-10-09T08:52:16.793Z,11.03
2022-10-09T08:54:45.451Z,8.50
2022-10-09T08:57:17.528Z,9.97
2022-10-09T08:59:46.184Z,13.27
2022-10-09T09:02:34.496Z,10.27
2022-10-09T09:05:20.755Z,12.27
2022-10-09T09:07:56.588Z,9.40
2022-10-09T09:10:35.781Z,9.53
2022-10-09T09:13:20.491Z,10.87
2022-10-09T09:15:55.375Z,10.20
2022-10-09T09:18:40.736Z,9.43
2022-10-09T09:21:18.313Z,9.40
2022-10-09T09:23:49.282Z,9.90
2022-10-09T09:26:20.578Z,11.60
2022-10-09T09:28:53.914Z,9.23
2022-10-09T09:31:25.979Z,14.43
2022-10-09T09:33:59.270Z,11.33
2022-10-09T09:36:32.947Z,10.80
2022-10-09T09:41:49.813Z,8.27
2022-10-09T09:44:20.457Z,8.50
2022-10-09T09:46:50.268Z,9.33
2022-10-09T09:49:19.778Z,8.97
2022-10-09T09:51:49.337Z,7.07
2022-10-09T09:54:22.060Z,7.77
2022-10-09T09:57:11.986Z,6.10
2022-10-09T09:59:44.741Z,8.57
2022-10-09T10:02:15.932Z,5.87
2022-10-09T10:04:52.503Z,8.43
2022-10-09T10:07:31.703Z,9.23
2022-10-09T10:10:07.672Z,8.20
2022-10-09T10:12:41.972Z,6.32
2022-10-09T10:15:21.240Z,7.10
2022-10-09T10:17:56.064Z,5.43
2022-10-09T10:20:24.807Z,7.25
2022-10-09T10:22:54.959Z,9.15
2022-10-09T10:25:26.236Z,9.43
2022-10-09T10:28:01.739Z,7.55
2022-10-09T10:30:32.423Z,7.22
2022-10-09T10:33:04.790Z,7.40
2022-10-09T10:35:36.252Z,15.27
2022-10-09T10:38:13.245Z,6.65
2022-10-09T10:40:45.895Z,8.88
2022-10-09T10:43:30.100Z,6.85
2022-10-09T10:46:11.239Z,8.75
2022-10-09T10:48:42.721Z,5.82
2022-10-09T10:51:46.696Z,6.72
2022-10-09T10:54:27.043Z,9.88
2022-10-09T10:57:04.974Z,6.78
2022-10-09T10:59:40.668Z,8.00
2022-10-09T11:02:47.721Z,6.32
2022-10-09T11:05:28.739Z,6.32
2022-10-09T11:08:09.581Z,6.75
2022-10-09T11:10:45.261Z,6.93
2022-10-09T11:13:19.109Z,8.18
2022-10-09T11:15:58.415Z,9.57
2022-10-09T11:18:40.718Z,7.18
2022-10-09T11:21:24.393Z,6.60
2022-10-09T11:24:24.153Z,9.50
2022-10-09T11:27:03.554Z,8.57
2022-10-09T11:29:38.554Z,6.93
2022-10-09T11:32:13.674Z,6.72
2022-10-09T11:34:47.127Z,5.03
2022-10-09T11:37:23.147Z,5.45
2022-10-09T11:39:51.422Z,6.35
2022-10-09T11:42:23.738Z,5.72
2022-10-09T11:45:03.913Z,4.18
2022-10-09T11:47:40.006Z,10.00
2022-10-09T11:50:29.661Z,9.35
2022-10-09T11:53:04.778Z,6.63
2022-10-09T11:55:34.793Z,10.52
2022-10-09T11:58:14.932Z,10.77
2022-10-09T12:00:43.934Z,7.10
2022-10-09T12:03:30.035Z,7.13
2022-10-09T12:06:08.098Z,6.88
2022-10-09T12:08:39.335Z,5.55
2022-10-09T12:11:14.549Z,4.05
2022-10-09T12:13:53.907Z,4.95
2022-10-09T12:16:43.024Z,5.10
2022-10-09T12:19:23.644Z,6.68
2022-10-09T12:21:58.390Z,8.63
2022-10-09T12:24:33.022Z,6.55
2022-10-09T12:27:04.200Z,4.95
2022-10-09T12:29:37.012Z,7.70
2022-10-09T12:32:12.818Z,7.88
2022-10-09T12:34:47.089Z,5.40
2022-10-09T12:37:18.053Z,7.63
2022-10-09T12:39:49.210Z,5.82
2022-10-09T12:42:23.222Z,5.97
2022-10-09T12:44:53.950Z,5.78
2022-10-09T12:47:26.529Z,5.20
2022-10-09T12:49:59.883Z,7.80
2022-10-09T12:52:28.688Z,12.50
2022-10-09T12:54:58.730Z,4.82
2022-10-09T12:57:28.099Z,6.30
2022-10-09T12:59:57.324Z,7.15
2022-10-09T13:02:26.096Z,4.55
2022-10-09T13:05:00.037Z,3.25
2022-10-09T13:07:30.541Z,7.07
2022-10-09T13:10:02.934Z,6.40
2022-10-09T13:12:32.910Z,7.80
2022-10-09T13:15:03.302Z,4.00
2022-10-09T13:17:34.194Z,5.35
2022-10-09T13:20:05.394Z,2.83
2022-10-09T13:22:35.884Z,6.97
2022-10-09T13:25:07.411Z,7.10
2022-10-09T13:27:39.159Z,6.55
2022-10-09T13:30:11.331Z,5.95
2022-10-09T13:32:39.534Z,8.15
2022-10-09T13:35:07.985Z,6.05
2022-10-09T13:37:36.647Z,4.18
2022-10-09T13:40:07.804Z,3.38
2022-10-09T13:42:37.947Z,4.95
2022-10-09T13:45:07.131Z,4.43
2022-10-09T13:47:35.463Z,2.80
2022-10-09T13:50:03.802Z,6.10
2022-10-09T13:52:32.215Z,6.03
2022-10-09T13:55:00.334Z,5.63
2022-10-09T13:57:29.895Z,4.07
2022-10-09T13:59:58.384Z,7.47
2022-10-09T14:02:26.625Z,7.55
2022-10-09T14:04:54.800Z,5.00
2022-10-09T14:07:23.185Z,7.88
2022-10-09T14:09:51.450Z,3.85
2022-10-09T14:12:19.658Z,4.60
2022-10-09T14:14:49.760Z,3.22
2022-10-09T14:17:18.044Z,3.33
2022-10-09T14:19:46.559Z,5.00
2022-10-09T14:22:14.930Z,2.83
2022-10-09T14:24:43.430Z,2.85
2022-10-09T14:27:11.620Z,6.05
2022-10-09T14:29:40.175Z,5.32
2022-10-09T14:32:09.639Z,3.85
2022-10-09T14:34:38.343Z,6.00
2022-10-09T14:37:18.542Z,6.72
2022-10-09T14:39:53.691Z,2.28
2022-10-09T14:42:22.928Z,5.40
2022-10-09T14:44:51.227Z,5.72
2022-10-09T14:47:21.116Z,3.20
2022-10-09T14:49:49.659Z,6.22
2022-10-09T14:52:18.017Z,3.45
2022-10-09T14:54:46.228Z,2.90
2022-10-09T14:57:15.264Z,5.40
2022-10-09T14:59:43.427Z,7.43
2022-10-09T15:02:15.200Z,3.60
2022-10-09T15:04:45.093Z,3.30
2022-10-09T15:07:13.265Z,2.53
2022-10-09T15:09:41.511Z,6.25
2022-10-09T15:12:09.898Z,3.50
2022-10-09T15:14:38.034Z,2.72
2022-10-09T15:17:06.214Z,2.50
2022-10-09T15:19:34.673Z,3.55
2022-10-09T15:22:04.246Z,3.45
2022-10-09T15:24:32.374Z,4.18
2022-10-09T15:27:00.903Z,4.18
2022-10-09T15:29:29.217Z,4.55
2022-10-09T15:31:57.587Z,4.47
2022-10-09T15:34:26.839Z,2.30
2022-10-09T15:36:55.049Z,4.63
2022-10-09T15:39:25.168Z,5.97
2022-10-09T15:41:53.423Z,4.30
2022-10-09T15:44:22.091Z,4.28
2022-10-09T15:46:50.772Z,3.83
2022-10-09T15:49:19.775Z,3.50
2022-10-09T15:51:48.149Z,3.90
2022-10-09T15:54:16.967Z,3.08
2022-10-09T15:56:46.493Z,3.88
2022-10-09T15:59:16.769Z,4.53
2022-10-09T16:01:45.275Z,3.17
2022-10-09T16:04:15.557Z,3.35
2022-10-09T16:06:44.232Z,4.10
2022-10-09T16:09:12.328Z,3.85
2022-10-09T16:11:40.750Z,5.13
2022-10-09T16:14:10.176Z,3.58
2022-10-09T16:16:38.315Z,5.50
2022-10-09T16:19:06.900Z,6.72
2022-10-09T16:21:35.358Z,5.63
2022-10-09T16:24:03.934Z,8.65
2022-10-09T16:26:32.434Z,3.28
2022-10-09T16:29:01.210Z,4.78
2022-10-09T16:31:34.792Z,6.53
2022-10-09T16:34:05.338Z,3.85
2022-10-09T16:36:34.046Z,4.18
2022-10-09T16:39:02.475Z,5.95
2022-10-09T16:41:30.768Z,6.82
2022-10-09T16:44:00.296Z,6.88
2022-10-09T16:49:02.740Z,8.50
2022-10-09T16:51:33.385Z,9.85
2022-10-09T16:54:03.551Z,9.88
2022-10-09T16:56:33.959Z,11.38
2022-10-09T16:59:04.183Z,12.63
2022-10-09T17:01:35.998Z,8.75
2022-10-09T17:04:04.721Z,8.27
2022-10-09T17:06:33.222Z,9.55
2022-10-09T17:09:01.486Z,6.70
2022-10-09T17:11:32.503Z,9.10
2022-10-09T17:14:00.987Z,6.53
2022-10-09T17:16:35.358Z,5.82
2022-10-09T17:19:05.432Z,6.93
2022-10-09T17:21:34.914Z,9.15
2022-10-09T17:24:06.130Z,7.15
2022-10-09T17:26:35.829Z,6.90
2022-10-09T17:29:05.055Z,10.73
2022-10-09T17:31:34.832Z,4.65
2022-10-09T17:34:05.692Z,5.30
2022-10-09T17:36:36.798Z,6.15
2022-10-09T17:39:06.944Z,6.78
2022-10-09T17:41:36.431Z,5.30
2022-10-09T17:44:05.464Z,7.85
2022-10-09T17:46:34.355Z,5.60
2022-10-09T17:49:04.188Z,6.00
2022-10-09T17:51:34.776Z,5.80
2022-10-09T17:54:09.544Z,7.72
2022-10-09T17:56:41.160Z,8.63
2022-10-09T17:59:09.794Z,7.53
2022-10-09T18:01:38.254Z,7.97
2022-10-09T18:04:08.043Z,6.85
2022-10-09T18:06:37.024Z,6.80
2022-10-09T18:09:05.919Z,10.13
2022-10-09T18:11:34.346Z,8.57
2022-10-09T18:14:03.824Z,10.60
2022-10-09T18:16:36.788Z,16.58
2022-10-09T18:19:11.448Z,13.07
2022-10-09T18:21:41.979Z,9.65
2022-10-09T18:24:11.062Z,6.93
2022-10-09T18:26:40.064Z,10.43
2022-10-09T18:29:08.812Z,13.73
2022-10-09T18:31:37.824Z,13.82
2022-10-09T18:34:06.223Z,17.75
2022-10-09T18:36:36.328Z,12.00
2022-10-09T18:39:08.166Z,17.50
2022-10-09T18:41:37.784Z,16.63
2022-10-09T18:44:09.830Z,15.30
2022-10-09T18:46:43.870Z,14.30
2022-10-09T18:49:14.797Z,17.20
2022-10-09T18:51:46.220Z,14.95
2022-10-09T18:54:18.128Z,16.13
2022-10-09T18:56:48.003Z,15.73
2022-10-09T18:59:20.384Z,16.08
2022-10-09T19:01:49.643Z,15.97
2022-10-09T19:04:19.157Z,21.40
2022-10-09T19:06:49.225Z,16.30
2022-10-09T19:09:17.632Z,17.60
2022-10-09T19:11:47.081Z,19.20
2022-10-09T19:14:16.324Z,23.23
2022-10-09T19:16:45.025Z,25.57
2022-10-09T19:19:13.744Z,25.30
2022-10-09T19:21:44.371Z,31.50
2022-10-09T19:24:14.550Z,24.70
2022-10-09T19:26:43.897Z,29.20
2022-10-09T19:29:12.583Z,28.53
2022-10-09T19:31:41.170Z,33.10
2022-10-09T19:34:09.938Z,37.07
2022-10-09T19:36:38.430Z,35.53
2022-10-09T19:39:09.654Z,56.90
2022-10-09T19:41:41.948Z,42.67
2022-10-09T19:44:10.654Z,28.87
2022-10-09T19:46:40.885Z,30.93
2022-10-09T19:49:09.801Z,30.47
2022-10-09T19:51:39.231Z,29.37
2022-10-09T19:54:09.570Z,28.47
2022-10-09T19:56:40.751Z,24.83
2022-10-09T19:59:09.621Z,30.33
2022-10-09T20:01:40.366Z,26.80
2022-10-09T20:04:10.772Z,29.93
2022-10-09T20:06:41.058Z,32.73
2022-10-09T20:09:12.224Z,26.93
2022-10-09T20:11:42.202Z,29.90
2022-10-09T20:14:10.913Z,30.53
2022-10-09T20:16:39.504Z,26.73
2022-10-09T20:19:08.176Z,28.23
2022-10-09T20:21:36.625Z,28.10
2022-10-09T20:24:06.256Z,22.67
2022-10-09T20:26:35.526Z,21.07
2022-10-09T20:29:07.125Z,18.50
2022-10-09T20:31:35.910Z,16.37
2022-10-09T20:34:04.334Z,26.50
2022-10-09T20:36:35.263Z,17.90
2022-10-09T20:39:05.830Z,15.90
2022-10-09T20:41:35.249Z,15.33
2022-10-09T20:44:04.269Z,16.17
2022-10-09T20:46:35.542Z,11.97
2022-10-09T20:49:05.610Z,13.10
2022-10-09T20:51:36.796Z,13.17
2022-10-09T20:54:05.865Z,14.40
2022-10-09T20:56:35.372Z,13.67
2022-10-09T20:59:04.963Z,12.67
2022-10-09T21:01:36.879Z,17.67
2022-10-09T21:04:05.657Z,16.17
2022-10-09T21:06:36.115Z,16.27
2022-10-09T21:09:04.798Z,19.87
2022-10-09T21:11:34.780Z,23.73
2022-10-09T21:14:04.007Z,20.30
2022-10-09T21:16:33.755Z,18.53
2022-10-09T21:19:03.964Z,22.40
2022-10-09T21:21:34.366Z,21.87
2022-10-09T21:24:02.977Z,17.60
2022-10-09T21:26:35.264Z,20.33
2022-10-09T21:29:04.101Z,19.37
2022-10-09T21:31:34.954Z,20.93
2022-10-09T21:34:03.889Z,18.97
2022-10-09T21:36:37.466Z,22.10
2022-10-09T21:39:07.657Z,27.47
2022-10-09T21:41:36.937Z,21.17
2022-10-09T21:44:05.619Z,24.13
2022-10-09T21:46:36.405Z,21.97
2022-10-09T21:49:07.657Z,22.67
2022-10-09T21:51:36.243Z,25.37
2022-10-09T21:54:04.477Z,19.43
2022-10-09T21:56:32.887Z,22.70
2022-10-09T21:59:01.192Z,22.90
2022-10-09T22:01:29.344Z,25.83
2022-10-09T22:03:59.054Z,21.43
2022-10-09T22:06:27.268Z,23.33
2022-10-09T22:08:55.559Z,21.47
2022-10-09T22:11:23.924Z,21.83
2022-10-09T22:13:52.092Z,19.47
2022-10-09T22:16:20.328Z,20.90
2022-10-09T22:18:48.610Z,19.43
2022-10-09T22:21:18.962Z,19.77
2022-10-09T22:23:47.476Z,23.33
2022-10-09T22:26:18.458Z,20.40
2022-10-09T22:28:47.481Z,21.30
2022-10-09T22:31:20.772Z,17.43
2022-10-09T22:33:51.745Z,17.73
2022-10-09T22:36:23.948Z,20.07
2022-10-09T22:38:54.745Z,20.47
2022-10-09T22:41:23.942Z,21.17
2022-10-09T22:43:54.450Z,19.80
2022-10-09T22:46:25.565Z,19.30
2022-10-09T22:48:54.485Z,17.83
2022-10-09T22:51:25.948Z,16.37
2022-10-09T22:53:55.380Z,17.67
2022-10-09T22:56:25.166Z,18.60
2022-10-09T22:58:55.834Z,20.00
2022-10-09T23:01:30.269Z,17.97
2022-10-09T23:03:59.593Z,15.27
2022-10-09T23:06:29.323Z,17.30
2022-10-09T23:08:58.272Z,19.03
2022-10-09T23:11:26.846Z,19.53
2022-10-09T23:13:56.690Z,15.63
2022-10-09T23:16:26.264Z,16.43
2022-10-09T23:18:56.042Z,16.60
2022-10-09T23:21:26.215Z,16.03
2022-10-09T23:23:56.677Z,18.47
2022-10-09T23:26:26.586Z,18.57
2022-10-09T23:28:56.456Z,18.43
2022-10-09T23:31:25.694Z,21.13
2022-10-09T23:33:55.096Z,19.77
2022-10-09T23:36:25.997Z,18.17
2022-10-09T23:38:56.157Z,18.97
2022-10-09T23:41:26.046Z,19.57
2022-10-09T23:43:54.806Z,18.20
2022-10-09T23:46:24.671Z,21.37
2022-10-09T23:48:54.264Z,17.27
2022-10-09T23:51:24.744Z,13.13
2022-10-09T23:53:53.742Z,19.53
2022-10-09T23:56:25.631Z,21.43
2022-10-09T23:58:55.737Z,20.60
